sensor_id;sensor_type;location;lat;lon;timestamp;P1;durP1;ratioP1;P2;durP2;ratioP2
57643;SDS011;43474;46.510;6.686;2022-11-14T00:00:11;21.48;;;10.43;;
57643;SDS011;43474;46.510;6.686;2022-11-14T00:02:59;21.05;;;9.88;;
57643;SDS011;43474;46.510;6.686;2022-11-14T00:05:25;19.77;;;9.93;;
57643;SDS011;43474;46.510;6.686;2022-11-14T00:07:51;22.38;;;12.60;;
57643;SDS011;43474;46.510;6.686;2022-11-14T00:10:16;20.70;;;10.68;;
57643;SDS011;43474;46.510;6.686;2022-11-14T00:12:42;21.08;;;10.35;;
57643;SDS011;43474;46.510;6.686;2022-11-14T00:15:08;13.60;;;8.05;;
57643;SDS011;43474;46.510;6.686;2022-11-14T00:17:34;16.15;;;8.45;;
57643;SDS011;43474;46.510;6.686;2022-11-14T00:20:00;17.10;;;9.13;;
57643;SDS011;43474;46.510;6.686;2022-11-14T00:22:26;16.48;;;10.02;;
57643;SDS011;43474;46.510;6.686;2022-11-14T00:24:51;20.08;;;11.30;;
57643;SDS011;43474;46.510;6.686;2022-11-14T00:27:17;17.55;;;9.48;;
57643;SDS011;43474;46.510;6.686;2022-11-14T00:29:43;19.17;;;10.10;;
57643;SDS011;43474;46.510;6.686;2022-11-14T00:32:08;13.30;;;7.55;;
57643;SDS011;43474;46.510;6.686;2022-11-14T00:34:34;16.23;;;8.80;;
57643;SDS011;43474;46.510;6.686;2022-11-14T00:37:00;14.32;;;8.70;;
57643;SDS011;43474;46.510;6.686;2022-11-14T00:39:25;16.30;;;9.10;;
57643;SDS011;43474;46.510;6.686;2022-11-14T00:41:51;16.80;;;9.20;;
57643;SDS011;43474;46.510;6.686;2022-11-14T00:44:17;15.75;;;8.25;;
57643;SDS011;43474;46.510;6.686;2022-11-14T00:46:43;16.13;;;8.60;;
57643;SDS011;43474;46.510;6.686;2022-11-14T00:49:09;16.35;;;9.23;;
57643;SDS011;43474;46.510;6.686;2022-11-14T00:51:34;19.17;;;9.20;;
57643;SDS011;43474;46.510;6.686;2022-11-14T00:54:00;21.42;;;10.00;;
57643;SDS011;43474;46.510;6.686;2022-11-14T00:56:26;18.80;;;10.00;;
57643;SDS011;43474;46.510;6.686;2022-11-14T00:58:52;25.23;;;10.93;;
57643;SDS011;43474;46.510;6.686;2022-11-14T01:01:18;22.90;;;12.13;;
57643;SDS011;43474;46.510;6.686;2022-11-14T01:03:46;23.55;;;11.25;;
57643;SDS011;43474;46.510;6.686;2022-11-14T01:06:16;23.27;;;11.95;;
57643;SDS011;43474;46.510;6.686;2022-11-14T01:08:43;21.63;;;11.23;;
57643;SDS011;43474;46.510;6.686;2022-11-14T01:11:09;22.13;;;11.60;;
57643;SDS011;43474;46.510;6.686;2022-11-14T01:13:37;20.42;;;10.98;;
57643;SDS011;43474;46.510;6.686;2022-11-14T01:16:03;18.50;;;10.43;;
57643;SDS011;43474;46.510;6.686;2022-11-14T01:18:29;22.52;;;10.90;;
57643;SDS011;43474;46.510;6.686;2022-11-14T01:20:55;20.88;;;10.65;;
57643;SDS011;43474;46.510;6.686;2022-11-14T01:23:21;18.55;;;10.20;;
57643;SDS011;43474;46.510;6.686;2022-11-14T01:25:47;20.75;;;10.27;;
57643;SDS011;43474;46.510;6.686;2022-11-14T01:28:14;16.60;;;8.95;;
57643;SDS011;43474;46.510;6.686;2022-11-14T01:30:41;19.15;;;8.57;;
57643;SDS011;43474;46.510;6.686;2022-11-14T01:33:07;15.38;;;8.93;;
57643;SDS011;43474;46.510;6.686;2022-11-14T01:35:33;20.83;;;9.15;;
57643;SDS011;43474;46.510;6.686;2022-11-14T01:38:01;16.40;;;8.30;;
57643;SDS011;43474;46.510;6.686;2022-11-14T01:40:27;12.77;;;7.43;;
57643;SDS011;43474;46.510;6.686;2022-11-14T01:46:00;15.93;;;8.35;;
57643;SDS011;43474;46.510;6.686;2022-11-14T01:51:33;18.60;;;8.23;;
57643;SDS011;43474;46.510;6.686;2022-11-14T01:54:13;18.20;;;9.02;;
57643;SDS011;43474;46.510;6.686;2022-11-14T01:56:50;21.77;;;9.48;;
57643;SDS011;43474;46.510;6.686;2022-11-14T01:59:21;18.40;;;9.30;;
57643;SDS011;43474;46.510;6.686;2022-11-14T02:01:50;17.63;;;8.90;;
57643;SDS011;43474;46.510;6.686;2022-11-14T02:04:22;16.45;;;8.38;;
57643;SDS011;43474;46.510;6.686;2022-11-14T02:06:50;17.90;;;8.75;;
57643;SDS011;43474;46.510;6.686;2022-11-14T02:09:20;16.80;;;8.82;;
57643;SDS011;43474;46.510;6.686;2022-11-14T02:11:46;15.68;;;8.80;;
57643;SDS011;43474;46.510;6.686;2022-11-14T02:14:12;17.05;;;8.55;;
57643;SDS011;43474;46.510;6.686;2022-11-14T02:16:39;14.13;;;8.55;;
57643;SDS011;43474;46.510;6.686;2022-11-14T02:19:07;14.80;;;8.35;;
57643;SDS011;43474;46.510;6.686;2022-11-14T02:21:33;16.33;;;8.80;;
57643;SDS011;43474;46.510;6.686;2022-11-14T02:23:59;13.82;;;7.90;;
57643;SDS011;43474;46.510;6.686;2022-11-14T02:26:24;15.98;;;7.97;;
57643;SDS011;43474;46.510;6.686;2022-11-14T02:28:50;15.75;;;8.75;;
57643;SDS011;43474;46.510;6.686;2022-11-14T02:31:16;17.10;;;8.32;;
57643;SDS011;43474;46.510;6.686;2022-11-14T02:33:42;17.48;;;9.18;;
57643;SDS011;43474;46.510;6.686;2022-11-14T02:36:07;14.73;;;8.07;;
57643;SDS011;43474;46.510;6.686;2022-11-14T02:38:34;16.58;;;8.10;;
57643;SDS011;43474;46.510;6.686;2022-11-14T02:41:00;14.13;;;7.95;;
57643;SDS011;43474;46.510;6.686;2022-11-14T02:43:26;17.20;;;9.13;;
57643;SDS011;43474;46.510;6.686;2022-11-14T02:45:51;15.93;;;8.55;;
57643;SDS011;43474;46.510;6.686;2022-11-14T02:48:17;16.35;;;8.63;;
57643;SDS011;43474;46.510;6.686;2022-11-14T02:50:43;14.85;;;7.88;;
57643;SDS011;43474;46.510;6.686;2022-11-14T02:53:09;13.40;;;7.38;;
57643;SDS011;43474;46.510;6.686;2022-11-14T02:55:34;11.88;;;7.07;;
57643;SDS011;43474;46.510;6.686;2022-11-14T02:58:00;12.65;;;7.25;;
57643;SDS011;43474;46.510;6.686;2022-11-14T03:00:26;14.45;;;7.22;;
57643;SDS011;43474;46.510;6.686;2022-11-14T03:02:52;12.82;;;7.43;;
57643;SDS011;43474;46.510;6.686;2022-11-14T03:05:18;14.35;;;7.47;;
57643;SDS011;43474;46.510;6.686;2022-11-14T03:07:44;14.55;;;7.45;;
57643;SDS011;43474;46.510;6.686;2022-11-14T03:10:10;21.30;;;9.48;;
57643;SDS011;43474;46.510;6.686;2022-11-14T03:12:36;14.82;;;8.77;;
57643;SDS011;43474;46.510;6.686;2022-11-14T03:15:03;14.10;;;7.65;;
57643;SDS011;43474;46.510;6.686;2022-11-14T03:17:31;15.07;;;7.65;;
57643;SDS011;43474;46.510;6.686;2022-11-14T03:19:57;13.98;;;7.35;;
57643;SDS011;43474;46.510;6.686;2022-11-14T03:22:23;12.73;;;6.82;;
57643;SDS011;43474;46.510;6.686;2022-11-14T03:24:49;11.82;;;7.03;;
57643;SDS011;43474;46.510;6.686;2022-11-14T03:27:14;13.25;;;6.72;;
57643;SDS011;43474;46.510;6.686;2022-11-14T03:29:40;17.02;;;11.32;;
57643;SDS011;43474;46.510;6.686;2022-11-14T03:32:06;13.55;;;7.47;;
57643;SDS011;43474;46.510;6.686;2022-11-14T03:34:32;11.68;;;6.78;;
57643;SDS011;43474;46.510;6.686;2022-11-14T03:36:57;14.05;;;6.35;;
57643;SDS011;43474;46.510;6.686;2022-11-14T03:39:25;12.57;;;6.53;;
57643;SDS011;43474;46.510;6.686;2022-11-14T03:41:51;12.48;;;6.65;;
57643;SDS011;43474;46.510;6.686;2022-11-14T03:44:17;13.00;;;8.38;;
57643;SDS011;43474;46.510;6.686;2022-11-14T03:46:42;22.40;;;11.27;;
57643;SDS011;43474;46.510;6.686;2022-11-14T03:49:08;18.27;;;10.65;;
57643;SDS011;43474;46.510;6.686;2022-11-14T03:51:34;10.43;;;6.13;;
57643;SDS011;43474;46.510;6.686;2022-11-14T03:54:00;11.30;;;6.28;;
57643;SDS011;43474;46.510;6.686;2022-11-14T03:56:25;9.48;;;5.63;;
57643;SDS011;43474;46.510;6.686;2022-11-14T03:58:51;8.85;;;5.45;;
57643;SDS011;43474;46.510;6.686;2022-11-14T04:01:16;11.48;;;5.65;;
57643;SDS011;43474;46.510;6.686;2022-11-14T04:03:42;11.50;;;6.10;;
57643;SDS011;43474;46.510;6.686;2022-11-14T04:06:08;8.32;;;5.55;;
57643;SDS011;43474;46.510;6.686;2022-11-14T04:08:33;9.40;;;5.22;;
57643;SDS011;43474;46.510;6.686;2022-11-14T04:10:59;9.23;;;6.07;;
57643;SDS011;43474;46.510;6.686;2022-11-14T04:13:25;9.80;;;5.47;;
57643;SDS011;43474;46.510;6.686;2022-11-14T04:15:54;11.98;;;4.97;;
57643;SDS011;43474;46.510;6.686;2022-11-14T04:18:23;7.97;;;4.80;;
57643;SDS011;43474;46.510;6.686;2022-11-14T04:20:50;8.95;;;4.57;;
57643;SDS011;43474;46.510;6.686;2022-11-14T04:23:16;8.13;;;4.63;;
57643;SDS011;43474;46.510;6.686;2022-11-14T04:25:42;8.38;;;4.50;;
57643;SDS011;43474;46.510;6.686;2022-11-14T04:28:09;7.72;;;5.20;;
57643;SDS011;43474;46.510;6.686;2022-11-14T04:30:34;6.90;;;4.47;;
57643;SDS011;43474;46.510;6.686;2022-11-14T04:33:00;7.88;;;4.68;;
57643;SDS011;43474;46.510;6.686;2022-11-14T04:35:25;11.30;;;5.30;;
57643;SDS011;43474;46.510;6.686;2022-11-14T04:37:51;9.45;;;5.20;;
57643;SDS011;43474;46.510;6.686;2022-11-14T04:40:16;8.95;;;4.90;;
57643;SDS011;43474;46.510;6.686;2022-11-14T04:42:42;8.90;;;5.40;;
57643;SDS011;43474;46.510;6.686;2022-11-14T04:45:07;7.88;;;4.47;;
57643;SDS011;43474;46.510;6.686;2022-11-14T04:47:33;7.55;;;4.53;;
57643;SDS011;43474;46.510;6.686;2022-11-14T04:49:59;7.70;;;4.18;;
57643;SDS011;43474;46.510;6.686;2022-11-14T04:52:25;7.13;;;4.45;;
57643;SDS011;43474;46.510;6.686;2022-11-14T04:54:50;7.72;;;4.40;;
57643;SDS011;43474;46.510;6.686;2022-11-14T04:57:16;10.23;;;4.65;;
57643;SDS011;43474;46.510;6.686;2022-11-14T04:59:42;7.90;;;4.93;;
57643;SDS011;43474;46.510;6.686;2022-11-14T05:02:08;9.60;;;5.60;;
57643;SDS011;43474;46.510;6.686;2022-11-14T05:04:33;8.38;;;3.70;;
57643;SDS011;43474;46.510;6.686;2022-11-14T05:06:59;6.20;;;3.30;;
57643;SDS011;43474;46.510;6.686;2022-11-14T05:09:25;6.47;;;3.67;;
57643;SDS011;43474;46.510;6.686;2022-11-14T05:11:50;7.05;;;3.90;;
57643;SDS011;43474;46.510;6.686;2022-11-14T05:14:16;7.93;;;3.80;;
57643;SDS011;43474;46.510;6.686;2022-11-14T05:16:41;6.13;;;3.30;;
57643;SDS011;43474;46.510;6.686;2022-11-14T05:19:07;6.45;;;3.30;;
57643;SDS011;43474;46.510;6.686;2022-11-14T05:21:32;4.88;;;3.13;;
57643;SDS011;43474;46.510;6.686;2022-11-14T05:23:58;5.78;;;3.20;;
57643;SDS011;43474;46.510;6.686;2022-11-14T05:26:24;4.82;;;2.92;;
57643;SDS011;43474;46.510;6.686;2022-11-14T05:28:49;5.03;;;2.97;;
57643;SDS011;43474;46.510;6.686;2022-11-14T05:31:15;5.53;;;2.80;;
57643;SDS011;43474;46.510;6.686;2022-11-14T05:33:43;4.85;;;2.67;;
57643;SDS011;43474;46.510;6.686;2022-11-14T05:36:11;5.90;;;2.67;;
57643;SDS011;43474;46.510;6.686;2022-11-14T05:38:38;3.90;;;2.45;;
57643;SDS011;43474;46.510;6.686;2022-11-14T05:41:07;3.15;;;2.00;;
57643;SDS011;43474;46.510;6.686;2022-11-14T05:43:34;4.43;;;2.10;;
57643;SDS011;43474;46.510;6.686;2022-11-14T05:46:00;2.53;;;1.65;;
57643;SDS011;43474;46.510;6.686;2022-11-14T05:48:28;3.50;;;2.30;;
57643;SDS011;43474;46.510;6.686;2022-11-14T05:50:54;2.25;;;1.55;;
57643;SDS011;43474;46.510;6.686;2022-11-14T05:53:21;3.08;;;1.58;;
57643;SDS011;43474;46.510;6.686;2022-11-14T05:55:46;2.35;;;1.58;;
57643;SDS011;43474;46.510;6.686;2022-11-14T05:58:12;3.92;;;1.52;;
57643;SDS011;43474;46.510;6.686;2022-11-14T06:00:37;4.65;;;1.75;;
57643;SDS011;43474;46.510;6.686;2022-11-14T06:03:03;3.15;;;1.30;;
57643;SDS011;43474;46.510;6.686;2022-11-14T06:05:29;3.08;;;1.70;;
57643;SDS011;43474;46.510;6.686;2022-11-14T06:07:55;1.92;;;1.45;;
57643;SDS011;43474;46.510;6.686;2022-11-14T06:10:22;3.75;;;1.50;;
57643;SDS011;43474;46.510;6.686;2022-11-14T06:12:48;1.95;;;1.50;;
57643;SDS011;43474;46.510;6.686;2022-11-14T06:15:13;2.85;;;1.40;;
57643;SDS011;43474;46.510;6.686;2022-11-14T06:17:39;3.50;;;1.40;;
57643;SDS011;43474;46.510;6.686;2022-11-14T06:20:05;2.13;;;1.13;;
57643;SDS011;43474;46.510;6.686;2022-11-14T06:22:31;1.50;;;1.05;;
57643;SDS011;43474;46.510;6.686;2022-11-14T06:24:57;1.67;;;1.10;;
57643;SDS011;43474;46.510;6.686;2022-11-14T06:27:23;1.48;;;1.20;;
57643;SDS011;43474;46.510;6.686;2022-11-14T06:29:48;1.27;;;0.93;;
57643;SDS011;43474;46.510;6.686;2022-11-14T06:32:14;2.70;;;1.40;;
57643;SDS011;43474;46.510;6.686;2022-11-14T06:34:39;1.83;;;0.90;;
57643;SDS011;43474;46.510;6.686;2022-11-14T06:37:05;2.20;;;1.42;;
57643;SDS011;43474;46.510;6.686;2022-11-14T06:39:30;4.75;;;1.60;;
57643;SDS011;43474;46.510;6.686;2022-11-14T06:41:56;2.75;;;1.30;;
57643;SDS011;43474;46.510;6.686;2022-11-14T06:44:21;3.28;;;1.50;;
57643;SDS011;43474;46.510;6.686;2022-11-14T06:46:47;1.88;;;1.33;;
57643;SDS011;43474;46.510;6.686;2022-11-14T06:49:13;2.13;;;1.02;;
57643;SDS011;43474;46.510;6.686;2022-11-14T06:51:38;3.78;;;1.38;;
57643;SDS011;43474;46.510;6.686;2022-11-14T06:54:04;2.03;;;1.17;;
57643;SDS011;43474;46.510;6.686;2022-11-14T06:56:30;2.15;;;1.52;;
57643;SDS011;43474;46.510;6.686;2022-11-14T06:58:55;1.98;;;1.40;;
57643;SDS011;43474;46.510;6.686;2022-11-14T07:01:22;1.33;;;1.20;;
57643;SDS011;43474;46.510;6.686;2022-11-14T07:03:50;3.75;;;1.52;;
57643;SDS011;43474;46.510;6.686;2022-11-14T07:06:18;1.90;;;1.40;;
57643;SDS011;43474;46.510;6.686;2022-11-14T07:08:47;2.72;;;1.20;;
57643;SDS011;43474;46.510;6.686;2022-11-14T07:11:14;1.52;;;1.05;;
57643;SDS011;43474;46.510;6.686;2022-11-14T07:13:50;1.77;;;1.23;;
57643;SDS011;43474;46.510;6.686;2022-11-14T07:16:24;2.47;;;1.35;;
57643;SDS011;43474;46.510;6.686;2022-11-14T07:18:53;1.60;;;1.10;;
57643;SDS011;43474;46.510;6.686;2022-11-14T07:21:19;1.48;;;1.08;;
57643;SDS011;43474;46.510;6.686;2022-11-14T07:23:45;2.00;;;1.30;;
57643;SDS011;43474;46.510;6.686;2022-11-14T07:26:11;2.00;;;1.20;;
57643;SDS011;43474;46.510;6.686;2022-11-14T07:28:37;5.05;;;1.58;;
57643;SDS011;43474;46.510;6.686;2022-11-14T07:31:05;1.52;;;1.35;;
57643;SDS011;43474;46.510;6.686;2022-11-14T07:33:31;1.92;;;1.33;;
57643;SDS011;43474;46.510;6.686;2022-11-14T07:35:58;2.33;;;1.48;;
57643;SDS011;43474;46.510;6.686;2022-11-14T07:38:23;3.53;;;1.42;;
57643;SDS011;43474;46.510;6.686;2022-11-14T07:40:55;2.42;;;1.50;;
57643;SDS011;43474;46.510;6.686;2022-11-14T07:43:22;2.00;;;1.38;;
57643;SDS011;43474;46.510;6.686;2022-11-14T07:45:48;2.00;;;1.10;;
57643;SDS011;43474;46.510;6.686;2022-11-14T07:48:13;1.88;;;1.10;;
57643;SDS011;43474;46.510;6.686;2022-11-14T07:50:39;3.20;;;1.52;;
57643;SDS011;43474;46.510;6.686;2022-11-14T07:53:05;2.40;;;1.35;;
57643;SDS011;43474;46.510;6.686;2022-11-14T07:55:30;2.33;;;1.20;;
57643;SDS011;43474;46.510;6.686;2022-11-14T07:57:58;1.65;;;1.20;;
57643;SDS011;43474;46.510;6.686;2022-11-14T08:00:24;3.15;;;1.50;;
57643;SDS011;43474;46.510;6.686;2022-11-14T08:02:50;2.53;;;1.30;;
57643;SDS011;43474;46.510;6.686;2022-11-14T08:05:16;1.65;;;1.20;;
57643;SDS011;43474;46.510;6.686;2022-11-14T08:07:41;2.70;;;1.45;;
57643;SDS011;43474;46.510;6.686;2022-11-14T08:10:07;1.92;;;1.40;;
57643;SDS011;43474;46.510;6.686;2022-11-14T08:12:35;1.70;;;1.52;;
57643;SDS011;43474;46.510;6.686;2022-11-14T08:15:03;2.60;;;1.30;;
57643;SDS011;43474;46.510;6.686;2022-11-14T08:17:28;2.05;;;1.40;;
57643;SDS011;43474;46.510;6.686;2022-11-14T08:19:57;2.13;;;1.30;;
57643;SDS011;43474;46.510;6.686;2022-11-14T08:22:22;1.70;;;1.40;;
57643;SDS011;43474;46.510;6.686;2022-11-14T08:24:48;3.53;;;1.40;;
57643;SDS011;43474;46.510;6.686;2022-11-14T08:27:14;2.90;;;1.27;;
57643;SDS011;43474;46.510;6.686;2022-11-14T08:29:39;1.67;;;1.10;;
57643;SDS011;43474;46.510;6.686;2022-11-14T08:32:05;2.40;;;1.10;;
57643;SDS011;43474;46.510;6.686;2022-11-14T08:34:31;2.78;;;1.27;;
57643;SDS011;43474;46.510;6.686;2022-11-14T08:36:56;1.90;;;1.23;;
57643;SDS011;43474;46.510;6.686;2022-11-14T08:39:22;1.83;;;1.17;;
57643;SDS011;43474;46.510;6.686;2022-11-14T08:41:48;2.05;;;1.30;;
57643;SDS011;43474;46.510;6.686;2022-11-14T08:44:14;1.48;;;1.10;;
57643;SDS011;43474;46.510;6.686;2022-11-14T08:46:39;1.83;;;1.10;;
57643;SDS011;43474;46.510;6.686;2022-11-14T08:49:05;1.42;;;1.30;;
57643;SDS011;43474;46.510;6.686;2022-11-14T08:51:30;1.58;;;1.23;;
57643;SDS011;43474;46.510;6.686;2022-11-14T08:53:56;3.10;;;1.08;;
57643;SDS011;43474;46.510;6.686;2022-11-14T08:56:22;2.72;;;1.15;;
57643;SDS011;43474;46.510;6.686;2022-11-14T08:58:47;3.78;;;1.77;;
57643;SDS011;43474;46.510;6.686;2022-11-14T09:01:13;4.00;;;1.30;;
57643;SDS011;43474;46.510;6.686;2022-11-14T09:03:38;1.75;;;1.10;;
57643;SDS011;43474;46.510;6.686;2022-11-14T09:06:04;1.88;;;1.15;;
57643;SDS011;43474;46.510;6.686;2022-11-14T09:08:30;2.65;;;1.27;;
57643;SDS011;43474;46.510;6.686;2022-11-14T09:10:58;3.15;;;1.42;;
57643;SDS011;43474;46.510;6.686;2022-11-14T09:13:25;2.03;;;1.33;;
57643;SDS011;43474;46.510;6.686;2022-11-14T09:15:51;2.22;;;1.50;;
57643;SDS011;43474;46.510;6.686;2022-11-14T09:18:17;2.13;;;1.20;;
57643;SDS011;43474;46.510;6.686;2022-11-14T09:20:43;2.15;;;1.38;;
57643;SDS011;43474;46.510;6.686;2022-11-14T09:23:08;2.70;;;1.20;;
57643;SDS011;43474;46.510;6.686;2022-11-14T09:25:35;1.83;;;1.23;;
57643;SDS011;43474;46.510;6.686;2022-11-14T09:28:06;3.92;;;1.95;;
57643;SDS011;43474;46.510;6.686;2022-11-14T09:30:33;2.38;;;1.45;;
57643;SDS011;43474;46.510;6.686;2022-11-14T09:33:01;2.05;;;1.60;;
57643;SDS011;43474;46.510;6.686;2022-11-14T09:35:28;2.42;;;1.45;;
57643;SDS011;43474;46.510;6.686;2022-11-14T09:38:01;2.95;;;1.80;;
57643;SDS011;43474;46.510;6.686;2022-11-14T09:40:30;2.53;;;1.52;;
57643;SDS011;43474;46.510;6.686;2022-11-14T09:45:51;3.03;;;1.70;;
57643;SDS011;43474;46.510;6.686;2022-11-14T09:48:21;1.92;;;1.33;;
57643;SDS011;43474;46.510;6.686;2022-11-14T09:51:02;2.55;;;1.48;;
57643;SDS011;43474;46.510;6.686;2022-11-14T09:53:47;4.60;;;1.50;;
57643;SDS011;43474;46.510;6.686;2022-11-14T09:56:25;1.80;;;1.27;;
57643;SDS011;43474;46.510;6.686;2022-11-14T09:58:51;4.05;;;1.38;;
57643;SDS011;43474;46.510;6.686;2022-11-14T10:01:27;1.38;;;1.00;;
57643;SDS011;43474;46.510;6.686;2022-11-14T10:09:53;4.75;;;1.30;;
57643;SDS011;43474;46.510;6.686;2022-11-14T10:12:36;3.47;;;1.17;;
57643;SDS011;43474;46.510;6.686;2022-11-14T10:15:28;3.28;;;1.13;;
57643;SDS011;43474;46.510;6.686;2022-11-14T10:26:27;3.75;;;1.20;;
57643;SDS011;43474;46.510;6.686;2022-11-14T10:34:11;2.60;;;0.98;;
57643;SDS011;43474;46.510;6.686;2022-11-14T10:39:38;2.70;;;1.15;;
57643;SDS011;43474;46.510;6.686;2022-11-14T10:42:12;1.55;;;0.70;;
57643;SDS011;43474;46.510;6.686;2022-11-14T10:44:46;2.40;;;0.73;;
57643;SDS011;43474;46.510;6.686;2022-11-14T10:47:18;1.17;;;0.93;;
57643;SDS011;43474;46.510;6.686;2022-11-14T10:49:47;1.90;;;0.85;;
57643;SDS011;43474;46.510;6.686;2022-11-14T10:52:19;2.95;;;0.90;;
57643;SDS011;43474;46.510;6.686;2022-11-14T10:54:52;0.93;;;0.60;;
57643;SDS011;43474;46.510;6.686;2022-11-14T10:57:24;1.27;;;0.70;;
57643;SDS011;43474;46.510;6.686;2022-11-14T10:59:50;1.20;;;0.50;;
57643;SDS011;43474;46.510;6.686;2022-11-14T11:02:17;1.00;;;0.60;;
57643;SDS011;43474;46.510;6.686;2022-11-14T11:04:43;0.95;;;0.60;;
57643;SDS011;43474;46.510;6.686;2022-11-14T11:09:59;2.30;;;0.88;;
57643;SDS011;43474;46.510;6.686;2022-11-14T11:12:51;2.13;;;0.63;;
57643;SDS011;43474;46.510;6.686;2022-11-14T11:15:19;1.92;;;0.82;;
57643;SDS011;43474;46.510;6.686;2022-11-14T11:18:13;3.70;;;1.13;;
57643;SDS011;43474;46.510;6.686;2022-11-14T11:23:46;0.70;;;0.40;;
57643;SDS011;43474;46.510;6.686;2022-11-14T11:26:18;2.67;;;1.00;;
57643;SDS011;43474;46.510;6.686;2022-11-14T11:28:44;3.37;;;0.70;;
57643;SDS011;43474;46.510;6.686;2022-11-14T11:34:11;1.10;;;0.45;;
57643;SDS011;43474;46.510;6.686;2022-11-14T11:36:45;1.00;;;0.70;;
57643;SDS011;43474;46.510;6.686;2022-11-14T11:39:19;2.45;;;0.52;;
57643;SDS011;43474;46.510;6.686;2022-11-14T11:41:50;1.35;;;0.50;;
57643;SDS011;43474;46.510;6.686;2022-11-14T11:44:19;0.52;;;0.50;;
57643;SDS011;43474;46.510;6.686;2022-11-14T11:46:48;1.30;;;0.40;;
57643;SDS011;43474;46.510;6.686;2022-11-14T11:51:54;1.23;;;0.60;;
57643;SDS011;43474;46.510;6.686;2022-11-14T11:54:22;1.33;;;0.68;;
57643;SDS011;43474;46.510;6.686;2022-11-14T11:56:53;0.73;;;0.50;;
57643;SDS011;43474;46.510;6.686;2022-11-14T11:59:42;0.60;;;0.40;;
57643;SDS011;43474;46.510;6.686;2022-11-14T12:04:50;0.45;;;0.30;;
57643;SDS011;43474;46.510;6.686;2022-11-14T12:07:18;0.90;;;0.60;;
57643;SDS011;43474;46.510;6.686;2022-11-14T12:09:46;0.65;;;0.40;;
57643;SDS011;43474;46.510;6.686;2022-11-14T12:15:03;1.73;;;0.60;;
57643;SDS011;43474;46.510;6.686;2022-11-14T12:17:36;0.65;;;0.50;;
57643;SDS011;43474;46.510;6.686;2022-11-14T12:31:55;1.58;;;1.00;;
57643;SDS011;43474;46.510;6.686;2022-11-14T12:34:45;1.70;;;0.80;;
57643;SDS011;43474;46.510;6.686;2022-11-14T12:37:22;1.30;;;0.50;;
57643;SDS011;43474;46.510;6.686;2022-11-14T12:40:05;1.00;;;0.40;;
57643;SDS011;43474;46.510;6.686;2022-11-14T12:42:32;0.55;;;0.47;;
57643;SDS011;43474;46.510;6.686;2022-11-14T12:44:59;0.75;;;0.50;;
57643;SDS011;43474;46.510;6.686;2022-11-14T12:47:26;1.85;;;0.40;;
57643;SDS011;43474;46.510;6.686;2022-11-14T12:58:17;2.03;;;0.40;;
57643;SDS011;43474;46.510;6.686;2022-11-14T13:06:18;2.40;;;0.52;;
57643;SDS011;43474;46.510;6.686;2022-11-14T13:14:15;0.65;;;0.45;;
57643;SDS011;43474;46.510;6.686;2022-11-14T13:17:35;0.57;;;0.40;;
57643;SDS011;43474;46.510;6.686;2022-11-14T13:26:38;1.73;;;0.73;;
57643;SDS011;43474;46.510;6.686;2022-11-14T13:33:42;2.05;;;0.75;;
57643;SDS011;43474;46.510;6.686;2022-11-14T13:36:32;2.42;;;0.57;;
57643;SDS011;43474;46.510;6.686;2022-11-14T13:39:19;1.27;;;0.70;;
57643;SDS011;43474;46.510;6.686;2022-11-14T13:44:45;1.33;;;0.65;;
57643;SDS011;43474;46.510;6.686;2022-11-14T13:52:20;1.98;;;0.88;;
57643;SDS011;43474;46.510;6.686;2022-11-14T13:54:47;2.70;;;0.95;;
57643;SDS011;43474;46.510;6.686;2022-11-14T14:00:13;1.00;;;0.80;;
57643;SDS011;43474;46.510;6.686;2022-11-14T14:02:56;1.73;;;1.63;;
57643;SDS011;43474;46.510;6.686;2022-11-14T14:11:19;1.77;;;0.90;;
57643;SDS011;43474;46.510;6.686;2022-11-14T14:25:30;2.50;;;1.13;;
57643;SDS011;43474;46.510;6.686;2022-11-14T14:31:08;2.92;;;0.80;;
57643;SDS011;43474;46.510;6.686;2022-11-14T14:33:43;3.78;;;0.80;;
57643;SDS011;43474;46.510;6.686;2022-11-14T14:36:22;2.60;;;0.90;;
57643;SDS011;43474;46.510;6.686;2022-11-14T14:38:50;3.47;;;1.10;;
57643;SDS011;43474;46.510;6.686;2022-11-14T14:41:33;2.85;;;0.90;;
57643;SDS011;43474;46.510;6.686;2022-11-14T14:43:59;1.00;;;0.70;;
57643;SDS011;43474;46.510;6.686;2022-11-14T14:46:26;2.22;;;1.33;;
57643;SDS011;43474;46.510;6.686;2022-11-14T14:48:54;1.83;;;1.05;;
57643;SDS011;43474;46.510;6.686;2022-11-14T14:51:30;1.30;;;1.10;;
57643;SDS011;43474;46.510;6.686;2022-11-14T14:53:59;1.40;;;1.02;;
57643;SDS011;43474;46.510;6.686;2022-11-14T14:56:24;1.20;;;0.90;;
57643;SDS011;43474;46.510;6.686;2022-11-14T14:58:50;2.70;;;1.10;;
57643;SDS011;43474;46.510;6.686;2022-11-14T15:01:17;2.40;;;1.20;;
57643;SDS011;43474;46.510;6.686;2022-11-14T15:03:46;2.45;;;1.50;;
57643;SDS011;43474;46.510;6.686;2022-11-14T15:09:22;2.13;;;1.25;;
57643;SDS011;43474;46.510;6.686;2022-11-14T15:11:50;3.38;;;1.27;;
57643;SDS011;43474;46.510;6.686;2022-11-14T15:14:20;1.90;;;1.30;;
57643;SDS011;43474;46.510;6.686;2022-11-14T15:16:47;2.53;;;1.35;;
57643;SDS011;43474;46.510;6.686;2022-11-14T15:19:19;4.13;;;1.25;;
57643;SDS011;43474;46.510;6.686;2022-11-14T15:22:18;2.03;;;1.30;;
57643;SDS011;43474;46.510;6.686;2022-11-14T15:27:42;2.72;;;1.10;;
57643;SDS011;43474;46.510;6.686;2022-11-14T15:30:19;4.60;;;1.15;;
57643;SDS011;43474;46.510;6.686;2022-11-14T15:32:49;4.80;;;1.30;;
57643;SDS011;43474;46.510;6.686;2022-11-14T15:37:58;3.13;;;1.20;;
57643;SDS011;43474;46.510;6.686;2022-11-14T15:40:28;1.50;;;1.13;;
57643;SDS011;43474;46.510;6.686;2022-11-14T15:42:55;1.33;;;1.10;;
57643;SDS011;43474;46.510;6.686;2022-11-14T15:45:24;2.83;;;1.17;;
57643;SDS011;43474;46.510;6.686;2022-11-14T15:48:05;2.53;;;1.10;;
57643;SDS011;43474;46.510;6.686;2022-11-14T15:50:38;1.42;;;1.00;;
57643;SDS011;43474;46.510;6.686;2022-11-14T15:55:49;1.42;;;1.33;;
57643;SDS011;43474;46.510;6.686;2022-11-14T15:58:15;1.50;;;0.88;;
57643;SDS011;43474;46.510;6.686;2022-11-14T16:00:45;1.42;;;0.93;;
57643;SDS011;43474;46.510;6.686;2022-11-14T16:03:18;1.42;;;0.98;;
57643;SDS011;43474;46.510;6.686;2022-11-14T16:08:11;4.47;;;1.35;;
57643;SDS011;43474;46.510;6.686;2022-11-14T16:10:38;6.85;;;1.40;;
57643;SDS011;43474;46.510;6.686;2022-11-14T16:13:04;1.85;;;1.10;;
57643;SDS011;43474;46.510;6.686;2022-11-14T16:15:30;1.50;;;0.90;;
57643;SDS011;43474;46.510;6.686;2022-11-14T16:17:55;1.48;;;1.38;;
57643;SDS011;43474;46.510;6.686;2022-11-14T16:20:22;1.55;;;0.90;;
57643;SDS011;43474;46.510;6.686;2022-11-14T16:22:50;3.17;;;1.15;;
57643;SDS011;43474;46.510;6.686;2022-11-14T16:25:19;2.90;;;1.42;;
57643;SDS011;43474;46.510;6.686;2022-11-14T16:27:46;1.52;;;1.00;;
57643;SDS011;43474;46.510;6.686;2022-11-14T16:30:13;4.85;;;1.35;;
57643;SDS011;43474;46.510;6.686;2022-11-14T16:32:40;2.25;;;1.08;;
57643;SDS011;43474;46.510;6.686;2022-11-14T16:35:12;1.45;;;1.13;;
57643;SDS011;43474;46.510;6.686;2022-11-14T16:37:39;4.78;;;1.63;;
57643;SDS011;43474;46.510;6.686;2022-11-14T16:40:05;2.05;;;1.42;;
57643;SDS011;43474;46.510;6.686;2022-11-14T16:42:31;2.53;;;1.70;;
57643;SDS011;43474;46.510;6.686;2022-11-14T16:45:06;4.30;;;2.33;;
57643;SDS011;43474;46.510;6.686;2022-11-14T16:47:32;3.40;;;2.42;;
57643;SDS011;43474;46.510;6.686;2022-11-14T16:49:58;2.40;;;1.60;;
57643;SDS011;43474;46.510;6.686;2022-11-14T16:52:25;2.15;;;1.13;;
57643;SDS011;43474;46.510;6.686;2022-11-14T16:54:51;3.35;;;1.52;;
57643;SDS011;43474;46.510;6.686;2022-11-14T16:57:16;4.05;;;1.60;;
57643;SDS011;43474;46.510;6.686;2022-11-14T16:59:42;2.65;;;1.70;;
57643;SDS011;43474;46.510;6.686;2022-11-14T17:02:12;3.90;;;2.10;;
57643;SDS011;43474;46.510;6.686;2022-11-14T17:04:42;5.45;;;3.58;;